createdAt,value
2022-09-12T00:01:12.805Z,17.08
2022-09-12T00:03:40.863Z,21.15
2022-09-12T00:06:10.886Z,18.70
2022-09-12T00:08:38.243Z,17.92
2022-09-12T00:11:08.135Z,17.50
2022-09-12T00:13:41.283Z,20.52
2022-09-12T00:16:16.741Z,18.75
2022-09-12T00:18:46.788Z,18.95
2022-09-12T00:21:16.494Z,16.55
2022-09-12T00:23:44.060Z,21.05
2022-09-12T00:26:12.068Z,20.20
2022-09-12T00:28:41.514Z,23.33
2022-09-12T00:31:14.213Z,21.55
2022-09-12T00:33:42.190Z,23.25
2022-09-12T00:36:17.078Z,26.48
2022-09-12T00:41:27.992Z,26.80
2022-09-12T00:44:22.504Z,24.25
2022-09-12T00:46:52.742Z,29.60
2022-09-12T00:49:33.442Z,28.52
2022-09-12T00:52:13.181Z,25.27
2022-09-12T00:54:51.791Z,28.00
2022-09-12T00:57:22.842Z,25.48
2022-09-12T00:59:59.594Z,23.63
2022-09-12T01:02:27.981Z,28.23
2022-09-12T01:04:56.012Z,24.65
2022-09-12T01:07:23.970Z,23.67
2022-09-12T01:09:51.465Z,26.25
2022-09-12T01:12:19.999Z,27.55
2022-09-12T01:14:50.218Z,28.95
2022-09-12T01:17:17.531Z,29.67
2022-09-12T01:20:19.084Z,32.60
2022-09-12T01:23:29.557Z,28.83
2022-09-12T01:26:09.199Z,28.52
2022-09-12T01:29:00.642Z,29.52
2022-09-12T01:31:39.749Z,31.67
2022-09-12T01:34:28.031Z,30.80
2022-09-12T01:37:16.992Z,39.05
2022-09-12T01:40:17.079Z,39.15
2022-09-12T01:42:56.136Z,41.83
2022-09-12T01:45:40.664Z,41.17
2022-09-12T01:48:18.160Z,42.92
2022-09-12T01:51:20.160Z,45.58
2022-09-12T01:53:58.530Z,49.17
2022-09-12T01:56:31.094Z,48.35
2022-09-12T01:59:35.102Z,47.63
2022-09-12T02:02:24.027Z,44.20
2022-09-12T02:05:17.510Z,41.85
2022-09-12T02:07:53.723Z,41.88
2022-09-12T02:10:29.149Z,41.88
2022-09-12T02:13:06.008Z,44.33
2022-09-12T02:15:40.152Z,45.60
2022-09-12T02:18:08.322Z,42.85
2022-09-12T02:20:48.289Z,41.65
2022-09-12T02:23:22.356Z,41.10
2022-09-12T02:25:54.802Z,45.22
2022-09-12T02:28:30.007Z,43.92
2022-09-12T02:31:19.228Z,38.35
2022-09-12T02:34:09.738Z,38.75
2022-09-12T02:37:04.319Z,34.60
2022-09-12T02:39:32.610Z,43.85
2022-09-12T02:42:01.817Z,52.33
2022-09-12T02:44:33.105Z,56.75
2022-09-12T02:47:14.016Z,49.13
2022-09-12T02:49:41.375Z,55.47
2022-09-12T02:52:08.702Z,58.95
2022-09-12T02:54:38.123Z,67.07
2022-09-12T02:57:22.836Z,63.65
2022-09-12T03:02:43.387Z,57.88
2022-09-12T03:05:29.574Z,54.08
2022-09-12T03:08:12.169Z,60.40
2022-09-12T03:10:39.389Z,65.63
2022-09-12T03:13:22.804Z,54.72
2022-09-12T03:15:55.583Z,55.63
2022-09-12T03:19:00.539Z,50.17
2022-09-12T03:21:51.055Z,50.50
2022-09-12T03:24:24.208Z,50.58
2022-09-12T03:26:58.796Z,53.35
2022-09-12T03:29:27.323Z,53.80
2022-09-12T03:31:57.830Z,51.65
2022-09-12T03:34:27.187Z,54.72
2022-09-12T03:36:58.173Z,52.42
2022-09-12T03:39:26.878Z,52.92
2022-09-12T03:41:55.716Z,55.50
2022-09-12T03:44:23.681Z,56.33
2022-09-12T03:46:51.391Z,58.35
2022-09-12T03:49:18.704Z,63.30
2022-09-12T03:51:46.058Z,69.30
2022-09-12T03:54:13.452Z,74.63
2022-09-12T03:56:41.515Z,75.60
2022-09-12T03:59:08.850Z,78.53
2022-09-12T04:01:37.387Z,83.75
2022-09-12T04:04:04.832Z,92.10
2022-09-12T04:06:32.168Z,84.65
2022-09-12T04:08:59.590Z,90.55
2022-09-12T04:11:27.006Z,91.13
2022-09-12T04:13:54.490Z,94.82
2022-09-12T04:16:22.098Z,93.65
2022-09-12T04:18:49.476Z,95.00
2022-09-12T04:21:19.475Z,95.10
2022-09-12T04:23:46.765Z,93.03
2022-09-12T04:26:14.977Z,101.50
2022-09-12T04:28:42.462Z,90.45
2022-09-12T04:31:15.447Z,97.78
2022-09-12T04:33:43.413Z,92.60
2022-09-12T04:36:14.854Z,93.10
2022-09-12T04:38:43.211Z,89.65
2022-09-12T04:41:15.640Z,88.70
2022-09-12T04:43:46.556Z,97.65
2022-09-12T04:46:16.597Z,90.22
2022-09-12T04:48:44.184Z,83.32
2022-09-12T04:51:15.280Z,83.80
2022-09-12T04:53:42.937Z,75.97
2022-09-12T04:56:12.135Z,74.22
2022-09-12T04:58:39.451Z,74.78
2022-09-12T05:01:12.998Z,72.40
2022-09-12T05:03:43.329Z,67.72
2022-09-12T05:06:13.485Z,76.10
2022-09-12T05:08:41.123Z,65.28
2022-09-12T05:11:12.759Z,65.80
2022-09-12T05:13:40.658Z,59.50
2022-09-12T05:16:10.917Z,63.88
2022-09-12T05:18:38.653Z,59.25
2022-09-12T05:21:08.016Z,59.10
2022-09-12T05:23:36.326Z,60.00
2022-09-12T05:26:05.187Z,50.03
2022-09-12T05:28:37.521Z,51.85
2022-09-12T05:31:04.845Z,53.17
2022-09-12T05:33:34.218Z,51.95
2022-09-12T05:36:03.069Z,51.08
2022-09-12T05:38:30.551Z,46.65
2022-09-12T05:41:06.202Z,49.28
2022-09-12T05:43:40.157Z,50.25
2022-09-12T05:46:10.941Z,48.23
2022-09-12T05:48:40.187Z,40.50
2022-09-12T05:51:12.967Z,42.83
2022-09-12T05:53:41.170Z,42.97
2022-09-12T05:56:11.330Z,40.47
2022-09-12T05:58:43.749Z,38.67
2022-09-12T06:01:16.917Z,39.33
2022-09-12T06:03:49.576Z,40.13
2022-09-12T06:06:20.123Z,41.47
2022-09-12T06:08:50.427Z,40.13
2022-09-12T06:11:26.031Z,39.42
2022-09-12T06:13:53.638Z,46.70
2022-09-12T06:16:32.912Z,38.30
2022-09-12T06:19:12.569Z,38.15
2022-09-12T06:21:40.063Z,35.42
2022-09-12T06:24:07.614Z,36.58
2022-09-12T06:26:35.315Z,40.40
2022-09-12T06:29:03.058Z,32.45
2022-09-12T06:31:33.571Z,33.92
2022-09-12T06:34:04.781Z,33.28
2022-09-12T06:36:34.877Z,31.33
2022-09-12T06:39:06.261Z,32.35
2022-09-12T06:41:33.926Z,27.65
2022-09-12T06:44:01.810Z,33.28
2022-09-12T06:46:31.035Z,32.45
2022-09-12T06:49:00.549Z,28.45
2022-09-12T06:51:28.755Z,29.73
2022-09-12T06:53:58.924Z,32.92
2022-09-12T06:56:27.601Z,31.13
2022-09-12T06:58:59.210Z,33.95
2022-09-12T07:01:31.698Z,31.33
2022-09-12T07:04:01.140Z,26.20
2022-09-12T07:06:33.826Z,33.08
2022-09-12T07:09:05.466Z,29.65
2022-09-12T07:11:38.045Z,30.25
2022-09-12T07:14:10.082Z,28.55
2022-09-12T07:16:37.539Z,25.40
2022-09-12T07:19:06.916Z,26.38
2022-09-12T07:21:41.105Z,28.17
2022-09-12T07:24:10.005Z,27.95
2022-09-12T07:26:37.857Z,25.23
2022-09-12T07:29:25.510Z,24.13
2022-09-12T07:31:52.603Z,26.05
2022-09-12T07:34:22.866Z,23.80
2022-09-12T07:36:50.157Z,24.52
2022-09-12T07:39:17.597Z,23.20
2022-09-12T07:41:44.883Z,21.13
2022-09-12T07:44:12.726Z,24.05
2022-09-12T07:46:40.073Z,22.17
2022-09-12T07:49:08.487Z,21.65
2022-09-12T07:51:36.109Z,21.25
2022-09-12T07:54:08.390Z,20.58
2022-09-12T07:56:38.863Z,20.77
2022-09-12T07:59:08.003Z,22.13
2022-09-12T08:01:39.783Z,17.52
2022-09-12T08:04:07.476Z,18.25
2022-09-12T08:06:36.396Z,16.55
2022-09-12T08:09:04.931Z,18.08
2022-09-12T08:11:32.370Z,17.98
2022-09-12T08:14:01.694Z,17.27
2022-09-12T08:16:31.258Z,16.05
2022-09-12T08:19:03.355Z,16.35
2022-09-12T08:21:32.926Z,17.25
2022-09-12T08:24:03.174Z,17.80
2022-09-12T08:26:30.865Z,18.05
2022-09-12T08:29:00.535Z,17.08
2022-09-12T08:31:37.693Z,18.20
2022-09-12T08:34:06.485Z,18.35
2022-09-12T08:36:34.842Z,17.98
2022-09-12T08:39:06.657Z,19.15
2022-09-12T08:41:35.083Z,19.25
2022-09-12T08:44:09.143Z,19.30
2022-09-12T08:46:53.344Z,19.55
2022-09-12T08:49:26.077Z,21.20
2022-09-12T08:51:59.231Z,17.95
2022-09-12T08:54:30.353Z,17.60
2022-09-12T08:57:05.515Z,18.10
2022-09-12T08:59:42.317Z,16.63
2022-09-12T09:02:44.179Z,16.30
2022-09-12T09:05:42.125Z,17.77
2022-09-12T09:08:23.435Z,17.08
2022-09-12T09:11:29.173Z,16.17
2022-09-12T09:14:17.761Z,17.05
2022-09-12T09:16:48.903Z,17.80
2022-09-12T09:19:21.477Z,16.85
2022-09-12T09:21:54.683Z,16.42
2022-09-12T09:24:27.758Z,16.42
2022-09-12T09:27:02.707Z,16.70
2022-09-12T09:29:44.167Z,16.08
2022-09-12T09:32:36.769Z,17.88
2022-09-12T09:35:46.426Z,16.75
2022-09-12T09:38:38.520Z,16.08
2022-09-12T09:41:23.239Z,17.88
2022-09-12T09:43:50.630Z,14.48
2022-09-12T09:46:18.393Z,15.43
2022-09-12T09:48:50.227Z,18.35
2022-09-12T09:51:25.221Z,14.18
2022-09-12T09:54:02.983Z,15.48
2022-09-12T09:56:34.293Z,15.77
2022-09-12T09:59:18.543Z,13.02
2022-09-12T10:01:56.887Z,15.40
2022-09-12T10:04:37.976Z,14.88
2022-09-12T10:07:19.416Z,12.60
2022-09-12T10:10:17.620Z,12.27
2022-09-12T10:12:45.371Z,13.85
2022-09-12T10:15:26.460Z,11.52
2022-09-12T10:17:55.707Z,13.45
2022-09-12T10:20:39.808Z,12.45
2022-09-12T10:23:19.571Z,11.50
2022-09-12T10:25:58.754Z,12.93
2022-09-12T10:28:35.726Z,13.57
2022-09-12T10:31:04.363Z,12.95
2022-09-12T10:33:37.645Z,11.25
2022-09-12T10:36:05.034Z,11.23
2022-09-12T10:38:34.350Z,8.65
2022-09-12T10:41:06.624Z,10.25
2022-09-12T10:43:33.948Z,10.88
2022-09-12T10:46:23.824Z,9.52
2022-09-12T10:49:11.912Z,9.55
2022-09-12T10:51:39.219Z,8.80
2022-09-12T10:54:10.637Z,8.90
2022-09-12T10:57:09.715Z,8.63
2022-09-12T11:00:00.378Z,10.48
2022-09-12T11:02:52.442Z,8.98
2022-09-12T11:05:44.714Z,9.27
2022-09-12T11:08:33.312Z,8.15
2022-09-12T11:11:29.541Z,7.70
2022-09-12T11:14:15.137Z,8.25
2022-09-12T11:17:13.398Z,8.18
2022-09-12T11:20:09.920Z,8.40
2022-09-12T11:22:43.139Z,6.13
2022-09-12T11:25:29.772Z,5.80
2022-09-12T11:28:12.159Z,6.03
2022-09-12T11:31:07.297Z,5.90
2022-09-12T11:36:36.115Z,6.40
2022-09-12T11:39:21.588Z,6.35
2022-09-12T11:41:55.847Z,9.05
2022-09-12T11:44:33.075Z,6.57
2022-09-12T11:47:08.054Z,5.70
2022-09-12T11:49:47.576Z,5.35
2022-09-12T11:52:20.641Z,4.90
2022-09-12T11:55:14.181Z,4.55
2022-09-12T11:57:50.563Z,3.38
2022-09-12T12:00:24.607Z,5.65
2022-09-12T12:03:05.190Z,3.58
2022-09-12T12:06:04.114Z,3.33
2022-09-12T12:08:37.513Z,3.70
2022-09-12T12:11:08.049Z,3.95
2022-09-12T12:13:59.144Z,4.30
2022-09-12T12:16:37.991Z,4.30
2022-09-12T12:19:36.672Z,4.47
2022-09-12T12:22:08.702Z,3.63
2022-09-12T12:25:17.200Z,6.68
2022-09-12T12:27:53.925Z,3.88
2022-09-12T12:30:56.687Z,3.60
2022-09-12T12:33:27.131Z,3.88
2022-09-12T12:36:00.449Z,2.97
2022-09-12T12:38:31.955Z,4.30
2022-09-12T12:41:17.618Z,3.33
2022-09-12T12:43:45.849Z,5.07
2022-09-12T12:46:18.847Z,5.13
2022-09-12T12:48:54.883Z,4.93
2022-09-12T12:51:38.885Z,5.15
2022-09-12T12:54:49.494Z,3.83
2022-09-12T12:57:22.972Z,3.60
2022-09-12T13:00:05.519Z,3.65
2022-09-12T13:02:49.355Z,4.22
2022-09-12T13:05:21.702Z,4.43
2022-09-12T13:07:57.988Z,3.00
2022-09-12T13:10:29.233Z,2.85
2022-09-12T13:13:01.342Z,9.38
2022-09-12T13:15:38.113Z,4.78
2022-09-12T13:18:15.742Z,3.92
2022-09-12T13:20:55.515Z,3.83
2022-09-12T13:23:31.699Z,3.20
2022-09-12T13:26:03.456Z,2.60
2022-09-12T13:28:31.637Z,2.95
2022-09-12T13:31:13.034Z,6.82
2022-09-12T13:33:53.789Z,2.67
2022-09-12T13:36:39.716Z,5.47
2022-09-12T13:39:10.410Z,5.93
2022-09-12T13:42:15.611Z,2.40
2022-09-12T13:44:47.114Z,4.65
2022-09-12T13:47:19.166Z,3.67
2022-09-12T13:49:48.172Z,3.22
2022-09-12T13:52:25.747Z,3.28
2022-09-12T13:54:56.172Z,3.22
2022-09-12T13:57:38.851Z,4.80
2022-09-12T14:00:19.933Z,3.28
2022-09-12T14:02:49.287Z,2.75
2022-09-12T14:05:24.184Z,5.30
2022-09-12T14:07:56.085Z,3.22
2022-09-12T14:10:39.955Z,2.90
2022-09-12T14:13:17.587Z,2.90
2022-09-12T14:15:48.174Z,17.15
2022-09-12T14:18:27.075Z,3.10
2022-09-12T14:20:57.419Z,2.80
2022-09-12T14:23:29.144Z,3.10
2022-09-12T14:26:00.156Z,4.97
2022-09-12T14:28:30.336Z,6.15
2022-09-12T14:31:06.381Z,2.92
2022-09-12T14:34:08.819Z,2.85
2022-09-12T14:36:42.041Z,6.30
2022-09-12T14:39:23.422Z,4.78
2022-09-12T14:41:52.282Z,3.15
2022-09-12T14:44:27.765Z,5.47
2022-09-12T14:47:10.554Z,6.05
2022-09-12T14:49:38.322Z,3.90
2022-09-12T14:52:21.364Z,3.42
2022-09-12T14:55:01.732Z,2.92
2022-09-12T14:57:33.401Z,4.35
2022-09-12T15:00:20.284Z,2.83
2022-09-12T15:02:50.042Z,3.78
2022-09-12T15:05:23.636Z,4.82
2022-09-12T15:07:50.939Z,4.13
2022-09-12T15:10:41.248Z,5.80
2022-09-12T15:13:08.982Z,3.58
2022-09-12T15:15:41.422Z,3.08
2022-09-12T15:18:09.600Z,5.43
2022-09-12T15:20:39.373Z,2.97
2022-09-12T15:23:12.045Z,3.53
2022-09-12T15:25:39.313Z,2.97
2022-09-12T15:28:16.359Z,2.45
2022-09-12T15:30:44.069Z,3.08
2022-09-12T15:33:12.151Z,2.55
2022-09-12T15:35:40.633Z,3.08
2022-09-12T15:38:08.066Z,3.88
2022-09-12T15:40:35.737Z,3.53
2022-09-12T15:43:03.270Z,3.17
2022-09-12T15:45:33.097Z,3.35
2022-09-12T15:48:02.681Z,3.90
2022-09-12T15:50:30.685Z,4.30
2022-09-12T15:52:58.851Z,4.70
2022-09-12T15:55:29.913Z,2.70
2022-09-12T15:57:57.311Z,3.15
2022-09-12T16:00:25.400Z,4.20
2022-09-12T16:02:54.063Z,3.80
2022-09-12T16:05:25.135Z,3.22
2022-09-12T16:07:54.013Z,4.25
2022-09-12T16:10:28.920Z,4.13
2022-09-12T16:12:57.616Z,4.28
2022-09-12T16:15:26.258Z,3.42
2022-09-12T16:17:53.691Z,3.60
2022-09-12T16:20:22.202Z,3.00
2022-09-12T16:22:49.531Z,3.60
2022-09-12T16:25:17.410Z,3.97
2022-09-12T16:27:45.100Z,4.50
2022-09-12T16:30:13.212Z,7.47
2022-09-12T16:32:40.731Z,3.83
2022-09-12T16:35:08.974Z,5.75
2022-09-12T16:37:36.489Z,3.95
2022-09-12T16:40:05.418Z,5.18
2022-09-12T16:42:32.857Z,7.53
2022-09-12T16:45:00.223Z,3.30
2022-09-12T16:47:27.574Z,3.83
2022-09-12T16:49:54.862Z,3.72
2022-09-12T16:52:22.207Z,3.60
2022-09-12T16:54:49.560Z,3.30
2022-09-12T16:57:17.014Z,4.90
2022-09-12T16:59:44.321Z,3.70
2022-09-12T17:02:13.733Z,5.97
2022-09-12T17:04:41.344Z,4.18
2022-09-12T17:07:08.934Z,4.53
2022-09-12T17:09:36.336Z,5.75
2022-09-12T17:12:04.241Z,3.83
2022-09-12T17:14:31.892Z,3.78
2022-09-12T17:16:59.239Z,3.30
2022-09-12T17:19:29.625Z,3.33
2022-09-12T17:21:57.502Z,3.47
2022-09-12T17:24:25.061Z,3.35
2022-09-12T17:26:53.472Z,5.38
2022-09-12T17:29:21.058Z,7.43
2022-09-12T17:31:48.812Z,4.20
2022-09-12T17:34:17.591Z,3.78
2022-09-12T17:36:45.808Z,3.88
2022-09-12T17:39:14.189Z,3.90
2022-09-12T17:41:42.661Z,5.35
2022-09-12T17:44:13.425Z,5.97
2022-09-12T17:46:41.546Z,3.38
2022-09-12T17:49:12.948Z,3.90
2022-09-12T17:51:41.068Z,4.10
2022-09-12T17:54:12.336Z,3.88
2022-09-12T17:56:40.377Z,3.70
2022-09-12T17:59:08.886Z,5.78
2022-09-12T18:01:54.743Z,3.53
2022-09-12T18:04:22.150Z,3.88
2022-09-12T18:06:49.573Z,3.80
2022-09-12T18:09:19.481Z,3.85
2022-09-12T18:11:48.072Z,4.35
2022-09-12T18:14:17.256Z,7.88
2022-09-12T18:16:46.205Z,4.70
2022-09-12T18:19:14.011Z,4.90
2022-09-12T18:21:41.647Z,6.78
2022-09-12T18:24:10.078Z,6.72
2022-09-12T18:26:37.947Z,7.80
2022-09-12T18:29:05.588Z,5.32
2022-09-12T18:31:33.137Z,4.82
2022-09-12T18:34:01.022Z,5.07
2022-09-12T18:36:29.692Z,5.05
2022-09-12T18:38:58.494Z,5.75
2022-09-12T18:41:26.806Z,6.75
2022-09-12T18:43:56.120Z,6.45
2022-09-12T18:46:24.604Z,6.07
2022-09-12T18:48:52.214Z,5.72
2022-09-12T18:51:31.355Z,6.57
2022-09-12T18:54:08.752Z,6.05
2022-09-12T18:56:38.463Z,5.47
2022-09-12T18:59:07.273Z,4.90
2022-09-12T19:01:36.693Z,5.53
2022-09-12T19:04:05.567Z,5.13
2022-09-12T19:06:35.502Z,4.72
2022-09-12T19:09:07.834Z,5.80
2022-09-12T19:11:38.212Z,5.45
2022-09-12T19:14:06.174Z,5.47
2022-09-12T19:16:34.792Z,8.00
2022-09-12T19:19:03.070Z,6.28
2022-09-12T19:21:31.688Z,5.75
2022-09-12T19:24:02.765Z,5.00
2022-09-12T19:26:30.208Z,7.32
2022-09-12T19:28:58.192Z,8.52
2022-09-12T19:31:26.095Z,6.72
2022-09-12T19:33:53.649Z,6.28
2022-09-12T19:36:43.931Z,6.53
2022-09-12T19:39:10.061Z,7.95
2022-09-12T19:41:37.493Z,4.80
2022-09-12T19:44:05.546Z,7.05
2022-09-12T19:46:32.915Z,4.80
2022-09-12T19:49:00.320Z,4.93
2022-09-12T19:51:27.713Z,5.45
2022-09-12T19:53:55.412Z,5.65
2022-09-12T19:56:22.775Z,7.47
2022-09-12T19:58:55.713Z,6.70
2022-09-12T20:01:28.647Z,6.10
2022-09-12T20:03:57.967Z,7.28
2022-09-12T20:06:26.089Z,6.00
2022-09-12T20:08:54.035Z,6.85
2022-09-12T20:11:23.466Z,7.80
2022-09-12T20:13:51.830Z,6.72
2022-09-12T20:16:22.459Z,6.35
2022-09-12T20:19:01.872Z,6.18
2022-09-12T20:21:31.623Z,7.20
2022-09-12T20:24:07.816Z,6.25
2022-09-12T20:26:35.330Z,6.85
2022-09-12T20:29:03.697Z,7.07
2022-09-12T20:31:31.949Z,8.77
2022-09-12T20:33:59.663Z,8.07
2022-09-12T20:36:27.027Z,9.00
2022-09-12T20:38:57.442Z,9.32
2022-09-12T20:41:26.784Z,7.82
2022-09-12T20:43:55.497Z,7.28
2022-09-12T20:46:24.273Z,7.75
2022-09-12T20:48:52.688Z,8.02
2022-09-12T20:51:21.607Z,7.40
2022-09-12T20:53:54.090Z,7.18
2022-09-12T20:56:22.635Z,6.95
2022-09-12T20:58:50.682Z,6.90
2022-09-12T21:01:18.093Z,6.53
2022-09-12T21:03:46.574Z,6.95
2022-09-12T21:06:16.964Z,6.70
2022-09-12T21:08:45.249Z,7.93
2022-09-12T21:11:13.425Z,7.05
2022-09-12T21:13:41.120Z,14.45
2022-09-12T21:16:15.202Z,7.13
2022-09-12T21:18:42.851Z,7.40
2022-09-12T21:21:12.044Z,8.05
2022-09-12T21:23:40.274Z,8.40
2022-09-12T21:26:08.688Z,8.43
2022-09-12T21:28:36.701Z,10.98
2022-09-12T21:31:04.082Z,9.93
2022-09-12T21:33:31.556Z,11.57
2022-09-12T21:36:03.951Z,9.55
2022-09-12T21:38:31.773Z,10.77
2022-09-12T21:41:09.711Z,10.85
2022-09-12T21:43:37.901Z,10.93
2022-09-12T21:46:06.660Z,10.27
2022-09-12T21:48:34.655Z,10.98
2022-09-12T21:51:02.511Z,14.00
2022-09-12T21:53:30.071Z,11.70
2022-09-12T21:56:02.356Z,9.77
2022-09-12T21:58:29.670Z,11.13
2022-09-12T22:00:57.234Z,10.77
2022-09-12T22:03:25.991Z,10.75
2022-09-12T22:06:01.675Z,12.07
2022-09-12T22:08:30.503Z,12.93
2022-09-12T22:11:02.700Z,10.35
2022-09-12T22:13:33.743Z,10.98
2022-09-12T22:16:02.884Z,12.43
2022-09-12T22:18:33.737Z,10.65
2022-09-12T22:21:03.611Z,10.90
2022-09-12T22:23:49.436Z,10.40
2022-09-12T22:26:16.941Z,10.82
2022-09-12T22:28:44.736Z,11.55
2022-09-12T22:31:13.059Z,11.30
2022-09-12T22:33:40.687Z,11.32
2022-09-12T22:36:09.753Z,10.48
2022-09-12T22:38:37.572Z,10.48
2022-09-12T22:41:10.060Z,11.38
2022-09-12T22:43:37.736Z,10.27
2022-09-12T22:46:09.668Z,10.93
2022-09-12T22:48:38.087Z,9.93
2022-09-12T22:51:06.531Z,11.48
2022-09-12T22:53:35.563Z,10.75
2022-09-12T22:56:05.023Z,10.60
2022-09-12T22:58:33.518Z,10.98
2022-09-12T23:01:00.809Z,10.70
2022-09-12T23:03:28.131Z,11.18
2022-09-12T23:05:55.511Z,10.32
2022-09-12T23:08:22.801Z,11.73
2022-09-12T23:10:50.461Z,11.27
2022-09-12T23:13:17.749Z,9.55
2022-09-12T23:15:45.096Z,9.98
2022-09-12T23:18:12.420Z,10.00
2022-09-12T23:20:39.651Z,9.88
2022-09-12T23:23:06.932Z,9.93
2022-09-12T23:25:34.424Z,10.00
2022-09-12T23:28:01.904Z,10.27
2022-09-12T23:30:29.174Z,8.90
2022-09-12T23:32:56.675Z,11.90
2022-09-12T23:35:23.950Z,11.93
2022-09-12T23:37:51.195Z,11.13
2022-09-12T23:40:18.545Z,8.98
2022-09-12T23:42:45.863Z,8.60
2022-09-12T23:45:13.126Z,9.50
2022-09-12T23:47:40.382Z,8.75
2022-09-12T23:50:07.943Z,12.10
2022-09-12T23:52:35.190Z,8.02
2022-09-12T23:55:02.603Z,9.98
2022-09-12T23:57:29.870Z,7.90
2022-09-12T23:59:57.214Z,9.40
